sensor_id;sensor_type;location;lat;lon;timestamp;P1;durP1;ratioP1;P2;durP2;ratioP2
62790;SDS011;48830;53.426;10.300;2023-03-01T00:00:49;19.70;;;9.80;;
62790;SDS011;48830;53.426;10.300;2023-03-01T00:03:15;18.13;;;8.93;;
62790;SDS011;48830;53.426;10.300;2023-03-01T00:05:44;21.40;;;10.13;;
62790;SDS011;48830;53.426;10.300;2023-03-01T00:08:10;18.77;;;9.23;;
62790;SDS011;48830;53.426;10.300;2023-03-01T00:10:36;19.87;;;9.10;;
62790;SDS011;48830;53.426;10.300;2023-03-01T00:13:01;16.30;;;8.97;;
62790;SDS011;48830;53.426;10.300;2023-03-01T00:15:27;13.97;;;8.00;;
62790;SDS011;48830;53.426;10.300;2023-03-01T00:17:53;14.93;;;8.47;;
62790;SDS011;48830;53.426;10.300;2023-03-01T00:20:18;14.40;;;7.70;;
62790;SDS011;48830;53.426;10.300;2023-03-01T00:22:43;14.93;;;6.70;;
62790;SDS011;48830;53.426;10.300;2023-03-01T00:25:09;14.37;;;7.57;;
62790;SDS011;48830;53.426;10.300;2023-03-01T00:27:34;12.53;;;6.87;;
62790;SDS011;48830;53.426;10.300;2023-03-01T00:30:00;12.27;;;6.97;;
62790;SDS011;48830;53.426;10.300;2023-03-01T00:32:25;14.07;;;6.53;;
62790;SDS011;48830;53.426;10.300;2023-03-01T00:34:51;13.33;;;6.63;;
62790;SDS011;48830;53.426;10.300;2023-03-01T00:37:21;14.77;;;6.70;;
62790;SDS011;48830;53.426;10.300;2023-03-01T00:39:47;10.27;;;6.10;;
62790;SDS011;48830;53.426;10.300;2023-03-01T00:42:12;10.87;;;6.27;;
62790;SDS011;48830;53.426;10.300;2023-03-01T00:44:38;11.27;;;6.27;;
62790;SDS011;48830;53.426;10.300;2023-03-01T00:47:03;10.60;;;6.23;;
62790;SDS011;48830;53.426;10.300;2023-03-01T00:49:30;11.13;;;6.77;;
62790;SDS011;48830;53.426;10.300;2023-03-01T00:51:55;10.63;;;6.17;;
62790;SDS011;48830;53.426;10.300;2023-03-01T00:54:22;11.50;;;6.33;;
62790;SDS011;48830;53.426;10.300;2023-03-01T00:56:48;12.77;;;6.60;;
62790;SDS011;48830;53.426;10.300;2023-03-01T00:59:13;10.90;;;6.70;;
62790;SDS011;48830;53.426;10.300;2023-03-01T01:01:39;12.50;;;5.97;;
62790;SDS011;48830;53.426;10.300;2023-03-01T01:04:05;13.37;;;6.87;;
62790;SDS011;48830;53.426;10.300;2023-03-01T01:06:35;12.43;;;6.20;;
62790;SDS011;48830;53.426;10.300;2023-03-01T01:09:04;10.70;;;6.90;;
62790;SDS011;48830;53.426;10.300;2023-03-01T01:11:31;11.03;;;6.20;;
62790;SDS011;48830;53.426;10.300;2023-03-01T01:13:58;10.13;;;5.70;;
62790;SDS011;48830;53.426;10.300;2023-03-01T01:16:24;11.63;;;6.60;;
62790;SDS011;48830;53.426;10.300;2023-03-01T01:18:51;12.40;;;6.27;;
62790;SDS011;48830;53.426;10.300;2023-03-01T01:21:19;13.13;;;6.13;;
62790;SDS011;48830;53.426;10.300;2023-03-01T01:23:46;10.67;;;6.30;;
62790;SDS011;48830;53.426;10.300;2023-03-01T01:26:14;11.00;;;6.90;;
62790;SDS011;48830;53.426;10.300;2023-03-01T01:28:49;13.23;;;6.67;;
62790;SDS011;48830;53.426;10.300;2023-03-01T01:31:15;10.83;;;6.23;;
62790;SDS011;48830;53.426;10.300;2023-03-01T01:33:41;11.17;;;6.20;;
62790;SDS011;48830;53.426;10.300;2023-03-01T01:36:07;11.87;;;6.30;;
62790;SDS011;48830;53.426;10.300;2023-03-01T01:38:34;12.67;;;6.80;;
62790;SDS011;48830;53.426;10.300;2023-03-01T01:41:00;10.90;;;6.30;;
62790;SDS011;48830;53.426;10.300;2023-03-01T01:43:27;10.87;;;5.83;;
62790;SDS011;48830;53.426;10.300;2023-03-01T01:46:05;10.47;;;6.20;;
62790;SDS011;48830;53.426;10.300;2023-03-01T01:48:42;11.67;;;6.27;;
62790;SDS011;48830;53.426;10.300;2023-03-01T01:51:30;11.77;;;5.93;;
62790;SDS011;48830;53.426;10.300;2023-03-01T01:54:06;10.80;;;6.00;;
62790;SDS011;48830;53.426;10.300;2023-03-01T01:56:37;15.43;;;6.03;;
62790;SDS011;48830;53.426;10.300;2023-03-01T01:59:06;11.53;;;6.10;;
62790;SDS011;48830;53.426;10.300;2023-03-01T02:01:31;14.13;;;6.00;;
62790;SDS011;48830;53.426;10.300;2023-03-01T02:03:57;11.37;;;6.20;;
62790;SDS011;48830;53.426;10.300;2023-03-01T02:08:49;10.87;;;6.03;;
62790;SDS011;48830;53.426;10.300;2023-03-01T02:11:17;10.43;;;5.83;;
62790;SDS011;48830;53.426;10.300;2023-03-01T02:13:46;10.37;;;5.60;;
62790;SDS011;48830;53.426;10.300;2023-03-01T02:16:14;10.10;;;5.53;;
62790;SDS011;48830;53.426;10.300;2023-03-01T02:18:41;9.03;;;5.30;;
62790;SDS011;48830;53.426;10.300;2023-03-01T02:21:12;10.37;;;5.43;;
62790;SDS011;48830;53.426;10.300;2023-03-01T02:23:41;9.03;;;5.43;;
62790;SDS011;48830;53.426;10.300;2023-03-01T02:26:11;9.73;;;5.40;;
62790;SDS011;48830;53.426;10.300;2023-03-01T02:28:42;9.97;;;5.67;;
62790;SDS011;48830;53.426;10.300;2023-03-01T02:31:10;11.17;;;5.33;;
62790;SDS011;48830;53.426;10.300;2023-03-01T02:33:58;8.80;;;4.83;;
62790;SDS011;48830;53.426;10.300;2023-03-01T02:36:29;10.53;;;4.83;;
62790;SDS011;48830;53.426;10.300;2023-03-01T02:39:00;9.33;;;5.13;;
62790;SDS011;48830;53.426;10.300;2023-03-01T02:41:28;9.93;;;5.20;;
62790;SDS011;48830;53.426;10.300;2023-03-01T02:43:57;10.43;;;4.40;;
62790;SDS011;48830;53.426;10.300;2023-03-01T02:46:24;9.30;;;4.63;;
62790;SDS011;48830;53.426;10.300;2023-03-01T02:48:52;10.47;;;4.87;;
62790;SDS011;48830;53.426;10.300;2023-03-01T02:56:48;7.70;;;4.23;;
62790;SDS011;48830;53.426;10.300;2023-03-01T02:59:16;9.83;;;4.97;;
62790;SDS011;48830;53.426;10.300;2023-03-01T03:01:44;10.50;;;4.47;;
62790;SDS011;48830;53.426;10.300;2023-03-01T03:04:11;11.33;;;4.80;;
62790;SDS011;48830;53.426;10.300;2023-03-01T03:06:44;8.27;;;4.47;;
62790;SDS011;48830;53.426;10.300;2023-03-01T03:09:11;11.00;;;4.57;;
62790;SDS011;48830;53.426;10.300;2023-03-01T03:11:37;7.73;;;4.40;;
62790;SDS011;48830;53.426;10.300;2023-03-01T03:14:04;10.07;;;4.70;;
62790;SDS011;48830;53.426;10.300;2023-03-01T03:16:31;8.53;;;4.17;;
62790;SDS011;48830;53.426;10.300;2023-03-01T03:18:56;8.03;;;4.33;;
62790;SDS011;48830;53.426;10.300;2023-03-01T03:21:33;9.27;;;4.20;;
62790;SDS011;48830;53.426;10.300;2023-03-01T03:23:59;8.57;;;4.40;;
62790;SDS011;48830;53.426;10.300;2023-03-01T03:26:24;11.40;;;4.53;;
62790;SDS011;48830;53.426;10.300;2023-03-01T03:28:50;8.37;;;4.60;;
62790;SDS011;48830;53.426;10.300;2023-03-01T03:31:15;8.60;;;4.30;;
62790;SDS011;48830;53.426;10.300;2023-03-01T03:33:41;7.87;;;4.13;;
62790;SDS011;48830;53.426;10.300;2023-03-01T03:36:06;9.23;;;4.50;;
62790;SDS011;48830;53.426;10.300;2023-03-01T03:38:38;8.97;;;4.80;;
62790;SDS011;48830;53.426;10.300;2023-03-01T03:41:07;7.70;;;4.50;;
62790;SDS011;48830;53.426;10.300;2023-03-01T03:43:34;9.60;;;4.43;;
62790;SDS011;48830;53.426;10.300;2023-03-01T03:46:01;8.00;;;4.33;;
62790;SDS011;48830;53.426;10.300;2023-03-01T03:48:31;10.43;;;5.07;;
62790;SDS011;48830;53.426;10.300;2023-03-01T03:50:58;7.80;;;4.13;;
62790;SDS011;48830;53.426;10.300;2023-03-01T03:53:24;8.37;;;4.60;;
62790;SDS011;48830;53.426;10.300;2023-03-01T03:55:52;8.23;;;4.50;;
62790;SDS011;48830;53.426;10.300;2023-03-01T03:58:18;8.03;;;4.23;;
62790;SDS011;48830;53.426;10.300;2023-03-01T04:00:45;7.60;;;4.90;;
62790;SDS011;48830;53.426;10.300;2023-03-01T04:03:12;9.20;;;5.03;;
62790;SDS011;48830;53.426;10.300;2023-03-01T04:05:39;9.03;;;4.67;;
62790;SDS011;48830;53.426;10.300;2023-03-01T04:08:05;7.67;;;4.27;;
62790;SDS011;48830;53.426;10.300;2023-03-01T04:10:35;9.20;;;4.60;;
62790;SDS011;48830;53.426;10.300;2023-03-01T04:13:03;7.40;;;4.73;;
62790;SDS011;48830;53.426;10.300;2023-03-01T04:15:30;8.20;;;4.83;;
62790;SDS011;48830;53.426;10.300;2023-03-01T04:17:57;8.03;;;4.53;;
62790;SDS011;48830;53.426;10.300;2023-03-01T04:20:25;8.90;;;5.00;;
62790;SDS011;48830;53.426;10.300;2023-03-01T04:25:50;8.93;;;5.00;;
62790;SDS011;48830;53.426;10.300;2023-03-01T04:31:01;8.47;;;4.43;;
62790;SDS011;48830;53.426;10.300;2023-03-01T04:33:38;8.90;;;4.73;;
62790;SDS011;48830;53.426;10.300;2023-03-01T04:36:07;10.80;;;4.40;;
62790;SDS011;48830;53.426;10.300;2023-03-01T04:38:34;10.73;;;5.23;;
62790;SDS011;48830;53.426;10.300;2023-03-01T04:41:01;9.63;;;5.30;;
62790;SDS011;48830;53.426;10.300;2023-03-01T04:43:28;8.07;;;4.23;;
62790;SDS011;48830;53.426;10.300;2023-03-01T04:45:54;9.30;;;5.03;;
62790;SDS011;48830;53.426;10.300;2023-03-01T04:48:19;7.47;;;4.60;;
62790;SDS011;48830;53.426;10.300;2023-03-01T04:50:44;8.73;;;5.07;;
62790;SDS011;48830;53.426;10.300;2023-03-01T04:53:10;8.93;;;5.30;;
62790;SDS011;48830;53.426;10.300;2023-03-01T04:55:35;9.53;;;4.97;;
62790;SDS011;48830;53.426;10.300;2023-03-01T04:58:01;7.83;;;4.30;;
62790;SDS011;48830;53.426;10.300;2023-03-01T05:00:26;8.90;;;4.83;;
62790;SDS011;48830;53.426;10.300;2023-03-01T05:02:53;7.67;;;4.87;;
62790;SDS011;48830;53.426;10.300;2023-03-01T05:05:20;8.47;;;4.93;;
62790;SDS011;48830;53.426;10.300;2023-03-01T05:07:51;9.03;;;4.97;;
62790;SDS011;48830;53.426;10.300;2023-03-01T05:10:20;9.20;;;5.13;;
62790;SDS011;48830;53.426;10.300;2023-03-01T05:12:46;9.93;;;5.13;;
62790;SDS011;48830;53.426;10.300;2023-03-01T05:15:11;8.63;;;5.47;;
62790;SDS011;48830;53.426;10.300;2023-03-01T05:17:37;8.47;;;5.10;;
62790;SDS011;48830;53.426;10.300;2023-03-01T05:20:02;8.10;;;5.10;;
62790;SDS011;48830;53.426;10.300;2023-03-01T05:22:33;9.27;;;5.20;;
62790;SDS011;48830;53.426;10.300;2023-03-01T05:24:58;10.27;;;5.33;;
62790;SDS011;48830;53.426;10.300;2023-03-01T05:27:24;10.73;;;5.23;;
62790;SDS011;48830;53.426;10.300;2023-03-01T05:29:49;7.37;;;4.73;;
62790;SDS011;48830;53.426;10.300;2023-03-01T05:32:14;9.27;;;5.10;;
62790;SDS011;48830;53.426;10.300;2023-03-01T05:34:40;9.50;;;4.83;;
62790;SDS011;48830;53.426;10.300;2023-03-01T05:37:07;10.03;;;6.23;;
62790;SDS011;48830;53.426;10.300;2023-03-01T05:39:32;8.57;;;4.90;;
62790;SDS011;48830;53.426;10.300;2023-03-01T05:41:59;9.63;;;5.00;;
62790;SDS011;48830;53.426;10.300;2023-03-01T05:44:26;10.83;;;4.77;;
62790;SDS011;48830;53.426;10.300;2023-03-01T05:46:53;9.47;;;5.07;;
62790;SDS011;48830;53.426;10.300;2023-03-01T05:49:19;8.63;;;5.13;;
62790;SDS011;48830;53.426;10.300;2023-03-01T05:51:49;9.00;;;4.73;;
62790;SDS011;48830;53.426;10.300;2023-03-01T05:54:16;8.70;;;5.07;;
62790;SDS011;48830;53.426;10.300;2023-03-01T05:56:43;8.87;;;4.93;;
62790;SDS011;48830;53.426;10.300;2023-03-01T05:59:09;9.57;;;4.60;;
62790;SDS011;48830;53.426;10.300;2023-03-01T06:01:34;8.90;;;4.70;;
62790;SDS011;48830;53.426;10.300;2023-03-01T06:04:00;10.20;;;4.70;;
62790;SDS011;48830;53.426;10.300;2023-03-01T06:06:26;7.37;;;4.30;;
62790;SDS011;48830;53.426;10.300;2023-03-01T06:08:52;7.67;;;4.00;;
62790;SDS011;48830;53.426;10.300;2023-03-01T06:11:18;7.23;;;4.00;;
62790;SDS011;48830;53.426;10.300;2023-03-01T06:13:44;7.37;;;4.07;;
62790;SDS011;48830;53.426;10.300;2023-03-01T06:16:10;7.47;;;4.10;;
62790;SDS011;48830;53.426;10.300;2023-03-01T06:18:36;7.37;;;4.10;;
62790;SDS011;48830;53.426;10.300;2023-03-01T06:21:02;8.20;;;4.20;;
62790;SDS011;48830;53.426;10.300;2023-03-01T06:23:29;6.73;;;3.90;;
62790;SDS011;48830;53.426;10.300;2023-03-01T06:25:55;6.60;;;4.00;;
62790;SDS011;48830;53.426;10.300;2023-03-01T06:28:20;7.50;;;4.13;;
62790;SDS011;48830;53.426;10.300;2023-03-01T06:30:46;7.27;;;3.90;;
62790;SDS011;48830;53.426;10.300;2023-03-01T06:33:12;9.43;;;4.03;;
62790;SDS011;48830;53.426;10.300;2023-03-01T06:35:37;8.90;;;3.90;;
62790;SDS011;48830;53.426;10.300;2023-03-01T06:38:03;7.60;;;3.80;;
62790;SDS011;48830;53.426;10.300;2023-03-01T06:40:29;7.60;;;3.87;;
62790;SDS011;48830;53.426;10.300;2023-03-01T06:42:56;7.90;;;4.07;;
62790;SDS011;48830;53.426;10.300;2023-03-01T06:45:23;7.70;;;3.67;;
62790;SDS011;48830;53.426;10.300;2023-03-01T06:47:49;13.67;;;8.50;;
62790;SDS011;48830;53.426;10.300;2023-03-01T06:50:15;9.83;;;4.73;;
62790;SDS011;48830;53.426;10.300;2023-03-01T06:52:42;9.93;;;6.20;;
62790;SDS011;48830;53.426;10.300;2023-03-01T06:55:09;8.07;;;4.70;;
62790;SDS011;48830;53.426;10.300;2023-03-01T06:57:36;7.83;;;4.10;;
62790;SDS011;48830;53.426;10.300;2023-03-01T07:00:03;6.70;;;4.10;;
62790;SDS011;48830;53.426;10.300;2023-03-01T07:02:29;7.33;;;4.30;;
62790;SDS011;48830;53.426;10.300;2023-03-01T07:04:55;9.33;;;5.30;;
62790;SDS011;48830;53.426;10.300;2023-03-01T07:07:20;8.93;;;4.33;;
62790;SDS011;48830;53.426;10.300;2023-03-01T07:09:46;8.13;;;4.13;;
62790;SDS011;48830;53.426;10.300;2023-03-01T07:12:12;8.63;;;4.50;;
62790;SDS011;48830;53.426;10.300;2023-03-01T07:14:37;7.60;;;3.77;;
62790;SDS011;48830;53.426;10.300;2023-03-01T07:17:03;9.47;;;4.40;;
62790;SDS011;48830;53.426;10.300;2023-03-01T07:19:28;7.33;;;4.00;;
62790;SDS011;48830;53.426;10.300;2023-03-01T07:21:54;8.23;;;3.83;;
62790;SDS011;48830;53.426;10.300;2023-03-01T07:24:21;8.93;;;4.27;;
62790;SDS011;48830;53.426;10.300;2023-03-01T07:26:50;6.83;;;3.80;;
62790;SDS011;48830;53.426;10.300;2023-03-01T07:29:16;8.23;;;3.80;;
62790;SDS011;48830;53.426;10.300;2023-03-01T07:31:42;6.77;;;3.67;;
62790;SDS011;48830;53.426;10.300;2023-03-01T07:34:08;8.10;;;3.83;;
62790;SDS011;48830;53.426;10.300;2023-03-01T07:36:33;6.10;;;3.60;;
62790;SDS011;48830;53.426;10.300;2023-03-01T07:38:59;6.53;;;3.60;;
62790;SDS011;48830;53.426;10.300;2023-03-01T07:41:27;7.73;;;4.00;;
62790;SDS011;48830;53.426;10.300;2023-03-01T07:43:53;8.47;;;3.73;;
62790;SDS011;48830;53.426;10.300;2023-03-01T07:46:18;7.13;;;3.70;;
62790;SDS011;48830;53.426;10.300;2023-03-01T07:48:44;7.77;;;3.60;;
62790;SDS011;48830;53.426;10.300;2023-03-01T07:51:09;6.40;;;3.60;;
62790;SDS011;48830;53.426;10.300;2023-03-01T07:53:35;6.27;;;3.27;;
62790;SDS011;48830;53.426;10.300;2023-03-01T07:56:02;7.27;;;3.50;;
62790;SDS011;48830;53.426;10.300;2023-03-01T07:58:33;8.17;;;3.90;;
62790;SDS011;48830;53.426;10.300;2023-03-01T08:01:01;5.67;;;3.10;;
62790;SDS011;48830;53.426;10.300;2023-03-01T08:03:27;6.20;;;3.50;;
62790;SDS011;48830;53.426;10.300;2023-03-01T08:05:53;6.57;;;3.43;;
62790;SDS011;48830;53.426;10.300;2023-03-01T08:08:18;8.60;;;3.73;;
62790;SDS011;48830;53.426;10.300;2023-03-01T08:10:44;7.53;;;4.07;;
62790;SDS011;48830;53.426;10.300;2023-03-01T08:13:09;8.67;;;4.20;;
62790;SDS011;48830;53.426;10.300;2023-03-01T08:15:34;7.37;;;3.80;;
62790;SDS011;48830;53.426;10.300;2023-03-01T08:18:00;8.63;;;3.67;;
62790;SDS011;48830;53.426;10.300;2023-03-01T08:20:25;8.93;;;3.60;;
62790;SDS011;48830;53.426;10.300;2023-03-01T08:22:51;7.63;;;3.47;;
62790;SDS011;48830;53.426;10.300;2023-03-01T08:25:16;7.83;;;3.87;;
62790;SDS011;48830;53.426;10.300;2023-03-01T08:27:42;6.77;;;3.43;;
62790;SDS011;48830;53.426;10.300;2023-03-01T08:30:07;6.27;;;3.30;;
62790;SDS011;48830;53.426;10.300;2023-03-01T08:32:37;6.50;;;3.23;;
62790;SDS011;48830;53.426;10.300;2023-03-01T08:35:04;6.37;;;3.20;;
62790;SDS011;48830;53.426;10.300;2023-03-01T08:37:29;10.70;;;4.60;;
62790;SDS011;48830;53.426;10.300;2023-03-01T08:39:58;7.63;;;3.53;;
62790;SDS011;48830;53.426;10.300;2023-03-01T08:42:23;6.17;;;3.20;;
62790;SDS011;48830;53.426;10.300;2023-03-01T08:44:49;6.70;;;3.50;;
62790;SDS011;48830;53.426;10.300;2023-03-01T08:47:14;9.20;;;3.83;;
62790;SDS011;48830;53.426;10.300;2023-03-01T08:49:40;6.10;;;3.43;;
62790;SDS011;48830;53.426;10.300;2023-03-01T08:52:05;7.27;;;3.30;;
62790;SDS011;48830;53.426;10.300;2023-03-01T08:54:31;8.97;;;3.70;;
62790;SDS011;48830;53.426;10.300;2023-03-01T08:56:56;7.50;;;4.30;;
62790;SDS011;48830;53.426;10.300;2023-03-01T08:59:24;9.00;;;5.17;;
62790;SDS011;48830;53.426;10.300;2023-03-01T09:01:50;31.73;;;14.87;;
62790;SDS011;48830;53.426;10.300;2023-03-01T09:04:15;20.10;;;8.80;;
62790;SDS011;48830;53.426;10.300;2023-03-01T09:06:41;10.57;;;5.47;;
62790;SDS011;48830;53.426;10.300;2023-03-01T09:09:10;26.17;;;11.27;;
62790;SDS011;48830;53.426;10.300;2023-03-01T09:11:40;19.83;;;9.10;;
62790;SDS011;48830;53.426;10.300;2023-03-01T09:14:05;43.30;;;19.58;;
62790;SDS011;48830;53.426;10.300;2023-03-01T09:16:31;15.15;;;7.38;;
62790;SDS011;48830;53.426;10.300;2023-03-01T09:19:01;9.05;;;5.22;;
62790;SDS011;48830;53.426;10.300;2023-03-01T09:21:28;9.40;;;4.95;;
62790;SDS011;48830;53.426;10.300;2023-03-01T09:23:55;8.68;;;5.30;;
62790;SDS011;48830;53.426;10.300;2023-03-01T09:26:22;7.88;;;4.80;;
62790;SDS011;48830;53.426;10.300;2023-03-01T09:28:49;7.82;;;4.65;;
62790;SDS011;48830;53.426;10.300;2023-03-01T09:31:17;8.38;;;5.07;;
62790;SDS011;48830;53.426;10.300;2023-03-01T09:33:45;9.80;;;4.70;;
62790;SDS011;48830;53.426;10.300;2023-03-01T09:36:13;7.78;;;4.63;;
62790;SDS011;48830;53.426;10.300;2023-03-01T09:38:41;7.60;;;4.95;;
62790;SDS011;48830;53.426;10.300;2023-03-01T09:41:10;9.43;;;5.55;;
62790;SDS011;48830;53.426;10.300;2023-03-01T09:43:51;10.65;;;5.80;;
62790;SDS011;48830;53.426;10.300;2023-03-01T09:46:21;10.73;;;6.22;;
62790;SDS011;48830;53.426;10.300;2023-03-01T09:48:50;10.50;;;6.20;;
62790;SDS011;48830;53.426;10.300;2023-03-01T09:51:26;10.25;;;5.90;;
62790;SDS011;48830;53.426;10.300;2023-03-01T09:53:55;10.20;;;6.35;;
62790;SDS011;48830;53.426;10.300;2023-03-01T09:56:33;9.60;;;6.20;;
62790;SDS011;48830;53.426;10.300;2023-03-01T09:59:08;11.55;;;5.75;;
62790;SDS011;48830;53.426;10.300;2023-03-01T10:01:46;8.57;;;5.63;;
62790;SDS011;48830;53.426;10.300;2023-03-01T10:07:25;11.95;;;6.95;;
62790;SDS011;48830;53.426;10.300;2023-03-01T10:09:52;11.50;;;7.05;;
62790;SDS011;48830;53.426;10.300;2023-03-01T10:12:19;13.02;;;7.60;;
62790;SDS011;48830;53.426;10.300;2023-03-01T10:22:43;10.57;;;6.38;;
62790;SDS011;48830;53.426;10.300;2023-03-01T10:25:14;11.98;;;6.75;;
62790;SDS011;48830;53.426;10.300;2023-03-01T10:30:32;9.57;;;6.53;;
62790;SDS011;48830;53.426;10.300;2023-03-01T10:33:26;13.15;;;6.43;;
62790;SDS011;48830;53.426;10.300;2023-03-01T10:36:01;12.48;;;7.43;;
62790;SDS011;48830;53.426;10.300;2023-03-01T10:38:27;13.20;;;7.25;;
62790;SDS011;48830;53.426;10.300;2023-03-01T10:41:00;12.07;;;7.28;;
62790;SDS011;48830;53.426;10.300;2023-03-01T10:43:52;11.57;;;7.78;;
62790;SDS011;48830;53.426;10.300;2023-03-01T10:51:44;12.52;;;7.97;;
62790;SDS011;48830;53.426;10.300;2023-03-01T10:54:27;13.00;;;7.15;;
62790;SDS011;48830;53.426;10.300;2023-03-01T10:56:55;10.00;;;7.18;;
62790;SDS011;48830;53.426;10.300;2023-03-01T11:02:16;11.90;;;7.40;;
62790;SDS011;48830;53.426;10.300;2023-03-01T11:04:56;11.63;;;7.88;;
62790;SDS011;48830;53.426;10.300;2023-03-01T11:10:18;16.83;;;10.30;;
62790;SDS011;48830;53.426;10.300;2023-03-01T11:12:45;21.48;;;15.82;;
62790;SDS011;48830;53.426;10.300;2023-03-01T11:15:26;19.40;;;13.55;;
62790;SDS011;48830;53.426;10.300;2023-03-01T11:17:53;24.52;;;17.80;;
62790;SDS011;48830;53.426;10.300;2023-03-01T11:20:36;21.80;;;15.43;;
62790;SDS011;48830;53.426;10.300;2023-03-01T11:23:04;14.57;;;9.32;;
62790;SDS011;48830;53.426;10.300;2023-03-01T11:25:39;13.02;;;8.00;;
62790;SDS011;48830;53.426;10.300;2023-03-01T11:28:09;11.63;;;8.10;;
62790;SDS011;48830;53.426;10.300;2023-03-01T11:38:40;11.75;;;8.45;;
62790;SDS011;48830;53.426;10.300;2023-03-01T11:41:16;10.57;;;8.18;;
62790;SDS011;48830;53.426;10.300;2023-03-01T11:43:59;11.80;;;8.45;;
62790;SDS011;48830;53.426;10.300;2023-03-01T11:58:00;9.57;;;7.90;;
62790;SDS011;48830;53.426;10.300;2023-03-01T12:12:03;9.93;;;8.40;;
62790;SDS011;48830;53.426;10.300;2023-03-01T12:26:01;10.32;;;7.00;;
62790;SDS011;48830;53.426;10.300;2023-03-01T12:28:41;9.55;;;7.20;;
62790;SDS011;48830;53.426;10.300;2023-03-01T12:34:18;11.20;;;7.13;;
62790;SDS011;48830;53.426;10.300;2023-03-01T12:36:58;9.75;;;7.25;;
62790;SDS011;48830;53.426;10.300;2023-03-01T12:39:42;9.40;;;7.15;;
62790;SDS011;48830;53.426;10.300;2023-03-01T12:51:25;10.30;;;7.70;;
62790;SDS011;48830;53.426;10.300;2023-03-01T12:53:55;10.18;;;7.53;;
62790;SDS011;48830;53.426;10.300;2023-03-01T12:56:25;10.07;;;7.53;;
62790;SDS011;48830;53.426;10.300;2023-03-01T13:04:20;8.82;;;6.82;;
62790;SDS011;48830;53.426;10.300;2023-03-01T13:10:24;9.95;;;7.07;;
62790;SDS011;48830;53.426;10.300;2023-03-01T13:13:20;10.10;;;7.32;;
62790;SDS011;48830;53.426;10.300;2023-03-01T13:15:47;10.85;;;8.15;;
62790;SDS011;48830;53.426;10.300;2023-03-01T13:23:12;10.20;;;8.10;;
62790;SDS011;48830;53.426;10.300;2023-03-01T13:28:38;9.93;;;7.20;;
62790;SDS011;48830;53.426;10.300;2023-03-01T13:46:45;9.77;;;6.57;;
62790;SDS011;48830;53.426;10.300;2023-03-01T13:49:11;11.07;;;7.88;;
62790;SDS011;48830;53.426;10.300;2023-03-01T13:51:41;10.20;;;6.93;;
62790;SDS011;48830;53.426;10.300;2023-03-01T13:54:11;10.10;;;7.05;;
62790;SDS011;48830;53.426;10.300;2023-03-01T13:56:39;11.18;;;7.40;;
62790;SDS011;48830;53.426;10.300;2023-03-01T13:59:15;10.25;;;7.32;;
62790;SDS011;48830;53.426;10.300;2023-03-01T14:01:53;9.82;;;7.18;;
62790;SDS011;48830;53.426;10.300;2023-03-01T14:04:22;9.82;;;6.60;;
62790;SDS011;48830;53.426;10.300;2023-03-01T14:06:47;8.43;;;6.22;;
62790;SDS011;48830;53.426;10.300;2023-03-01T14:09:17;9.70;;;6.72;;
62790;SDS011;48830;53.426;10.300;2023-03-01T14:14:30;8.82;;;6.43;;
62790;SDS011;48830;53.426;10.300;2023-03-01T14:17:25;7.90;;;5.75;;
62790;SDS011;48830;53.426;10.300;2023-03-01T14:20:18;8.45;;;6.65;;
62790;SDS011;48830;53.426;10.300;2023-03-01T14:22:49;10.48;;;7.25;;
62790;SDS011;48830;53.426;10.300;2023-03-01T14:27:59;7.95;;;5.57;;
62790;SDS011;48830;53.426;10.300;2023-03-01T14:33:01;10.63;;;6.07;;
62790;SDS011;48830;53.426;10.300;2023-03-01T14:35:29;7.72;;;5.10;;
62790;SDS011;48830;53.426;10.300;2023-03-01T14:37:56;8.25;;;5.30;;
62790;SDS011;48830;53.426;10.300;2023-03-01T14:40:24;10.55;;;5.53;;
62790;SDS011;48830;53.426;10.300;2023-03-01T14:42:51;11.00;;;5.68;;
62790;SDS011;48830;53.426;10.300;2023-03-01T14:45:20;12.20;;;7.50;;
62790;SDS011;48830;53.426;10.300;2023-03-01T14:47:45;10.02;;;6.65;;
62790;SDS011;48830;53.426;10.300;2023-03-01T14:50:23;15.68;;;9.07;;
62790;SDS011;48830;53.426;10.300;2023-03-01T14:52:52;9.05;;;5.72;;
62790;SDS011;48830;53.426;10.300;2023-03-01T14:55:29;12.20;;;8.63;;
62790;SDS011;48830;53.426;10.300;2023-03-01T14:57:57;10.68;;;5.80;;
62790;SDS011;48830;53.426;10.300;2023-03-01T15:00:23;8.70;;;5.32;;
62790;SDS011;48830;53.426;10.300;2023-03-01T15:02:51;7.07;;;4.93;;
62790;SDS011;48830;53.426;10.300;2023-03-01T15:05:26;9.35;;;6.15;;
62790;SDS011;48830;53.426;10.300;2023-03-01T15:07:56;8.40;;;5.15;;
62790;SDS011;48830;53.426;10.300;2023-03-01T15:10:25;9.40;;;6.43;;
62790;SDS011;48830;53.426;10.300;2023-03-01T15:12:53;7.57;;;4.50;;
62790;SDS011;48830;53.426;10.300;2023-03-01T15:17:55;7.10;;;4.13;;
62790;SDS011;48830;53.426;10.300;2023-03-01T15:20:26;7.75;;;4.05;;
62790;SDS011;48830;53.426;10.300;2023-03-01T15:22:54;6.55;;;4.10;;
62790;SDS011;48830;53.426;10.300;2023-03-01T15:25:22;7.88;;;4.57;;
62790;SDS011;48830;53.426;10.300;2023-03-01T15:27:50;8.90;;;4.72;;
62790;SDS011;48830;53.426;10.300;2023-03-01T15:30:19;8.02;;;4.40;;
62790;SDS011;48830;53.426;10.300;2023-03-01T15:32:47;5.43;;;3.42;;
62790;SDS011;48830;53.426;10.300;2023-03-01T15:38:00;7.65;;;5.13;;
62790;SDS011;48830;53.426;10.300;2023-03-01T15:40:27;6.15;;;4.05;;
62790;SDS011;48830;53.426;10.300;2023-03-01T15:43:00;6.43;;;3.92;;
62790;SDS011;48830;53.426;10.300;2023-03-01T15:45:27;7.43;;;4.82;;
62790;SDS011;48830;53.426;10.300;2023-03-01T15:47:58;6.25;;;3.60;;
62790;SDS011;48830;53.426;10.300;2023-03-01T15:50:29;6.90;;;3.67;;
62790;SDS011;48830;53.426;10.300;2023-03-01T15:53:00;6.45;;;3.60;;
62790;SDS011;48830;53.426;10.300;2023-03-01T15:55:31;6.68;;;3.35;;
62790;SDS011;48830;53.426;10.300;2023-03-01T16:00:43;7.90;;;2.95;;
62790;SDS011;48830;53.426;10.300;2023-03-01T16:03:12;5.43;;;2.70;;
62790;SDS011;48830;53.426;10.300;2023-03-01T16:05:38;5.28;;;3.20;;
62790;SDS011;48830;53.426;10.300;2023-03-01T16:08:04;5.15;;;3.10;;
62790;SDS011;48830;53.426;10.300;2023-03-01T16:10:34;6.95;;;3.63;;
62790;SDS011;48830;53.426;10.300;2023-03-01T16:13:00;6.15;;;3.33;;
62790;SDS011;48830;53.426;10.300;2023-03-01T16:15:27;5.72;;;3.20;;
62790;SDS011;48830;53.426;10.300;2023-03-01T16:17:53;6.70;;;3.42;;
62790;SDS011;48830;53.426;10.300;2023-03-01T16:20:20;6.90;;;3.90;;
62790;SDS011;48830;53.426;10.300;2023-03-01T16:22:46;7.38;;;3.75;;
62790;SDS011;48830;53.426;10.300;2023-03-01T16:25:14;7.18;;;3.60;;
62790;SDS011;48830;53.426;10.300;2023-03-01T16:27:42;6.35;;;3.38;;
62790;SDS011;48830;53.426;10.300;2023-03-01T16:30:09;6.60;;;3.63;;
62790;SDS011;48830;53.426;10.300;2023-03-01T16:32:39;5.80;;;3.40;;
62790;SDS011;48830;53.426;10.300;2023-03-01T16:35:06;5.03;;;3.15;;
62790;SDS011;48830;53.426;10.300;2023-03-01T16:37:32;6.45;;;3.30;;
62790;SDS011;48830;53.426;10.300;2023-03-01T16:39:58;6.72;;;3.28;;
62790;SDS011;48830;53.426;10.300;2023-03-01T16:42:24;6.72;;;3.38;;
62790;SDS011;48830;53.426;10.300;2023-03-01T16:44:54;6.05;;;2.95;;
62790;SDS011;48830;53.426;10.300;2023-03-01T16:47:20;6.82;;;3.33;;
62790;SDS011;48830;53.426;10.300;2023-03-01T16:49:45;5.53;;;3.00;;
62790;SDS011;48830;53.426;10.300;2023-03-01T16:52:11;5.22;;;2.90;;
62790;SDS011;48830;53.426;10.300;2023-03-01T16:54:36;5.72;;;3.03;;
62790;SDS011;48830;53.426;10.300;2023-03-01T16:57:02;5.60;;;2.63;;